createdAt,value
2018-04-01T00:00:04.396Z,7.10
2018-04-01T00:02:37.993Z,7.10
2018-04-01T00:05:12.228Z,7.00
2018-04-01T00:07:47.326Z,7.10
2018-04-01T00:10:21.586Z,7.00
2018-04-01T00:12:54.964Z,7.00
2018-04-01T00:15:29.271Z,7.00
2018-04-01T00:18:02.875Z,7.00
2018-04-01T00:20:37.531Z,7.00
2018-04-01T00:23:11.823Z,7.00
2018-04-01T00:25:46.142Z,7.00
2018-04-01T00:28:19.545Z,7.00
2018-04-01T00:30:52.939Z,7.00
2018-04-01T00:33:27.252Z,7.00
2018-04-01T00:36:01.367Z,7.00
2018-04-01T00:38:34.864Z,6.90
2018-04-01T00:41:07.941Z,7.00
2018-04-01T00:43:41.446Z,6.90
2018-04-01T00:46:17.310Z,6.90
2018-04-01T00:48:50.576Z,6.80
2018-04-01T00:51:23.971Z,6.90
2018-04-01T00:53:58.389Z,6.80
2018-04-01T00:56:32.399Z,6.80
2018-04-01T00:59:06.030Z,6.80
2018-04-01T01:01:40.825Z,6.80
2018-04-01T01:04:14.321Z,6.80
2018-04-01T01:06:50.096Z,6.80
2018-04-01T01:09:24.080Z,6.80
2018-04-01T01:11:58.090Z,6.80
2018-04-01T01:14:31.487Z,6.70
2018-04-01T01:17:06.210Z,6.70
2018-04-01T01:19:39.719Z,6.70
2018-04-01T01:22:13.089Z,6.70
2018-04-01T01:24:46.836Z,6.80
2018-04-01T01:27:20.619Z,6.70
2018-04-01T01:29:54.638Z,6.70
2018-04-01T01:32:29.339Z,6.70
2018-04-01T01:35:03.356Z,6.70
2018-04-01T01:37:36.911Z,6.70
2018-04-01T01:40:10.880Z,6.80
2018-04-01T01:42:44.256Z,6.70
2018-04-01T01:45:17.879Z,6.70
2018-04-01T01:47:51.375Z,6.70
2018-04-01T01:50:25.161Z,6.70
2018-04-01T01:52:59.888Z,6.70
2018-04-01T01:55:34.107Z,6.70
2018-04-01T01:58:08.948Z,6.70
2018-04-01T02:00:42.537Z,6.70
2018-04-01T02:03:17.756Z,6.70
2018-04-01T02:05:51.880Z,6.60
2018-04-01T02:08:26.074Z,6.70
2018-04-01T02:11:00.818Z,6.70
2018-04-01T02:13:35.353Z,6.60
2018-04-01T02:16:09.961Z,6.60
2018-04-01T02:18:44.086Z,6.60
2018-04-01T02:21:17.781Z,6.60
2018-04-01T02:23:52.025Z,6.70
2018-04-01T02:26:26.306Z,6.60
2018-04-01T02:28:59.605Z,6.70
2018-04-01T02:31:33.056Z,6.80
2018-04-01T02:34:07.308Z,6.80
2018-04-01T02:36:41.945Z,6.80
2018-04-01T02:39:15.345Z,6.70
2018-04-01T02:41:49.041Z,6.80
2018-04-01T02:44:22.354Z,6.70
2018-04-01T02:46:58.072Z,6.70
2018-04-01T02:49:32.090Z,6.70
2018-04-01T02:52:05.940Z,6.70
2018-04-01T02:54:39.199Z,6.70
2018-04-01T02:57:13.912Z,6.80
2018-04-01T02:59:49.765Z,6.80
2018-04-01T03:02:23.901Z,6.70
2018-04-01T03:04:57.879Z,6.70
2018-04-01T03:07:31.814Z,6.70
2018-04-01T03:10:06.277Z,6.70
2018-04-01T03:12:40.458Z,6.70
2018-04-01T03:15:13.824Z,6.70
2018-04-01T03:17:48.853Z,6.70
2018-04-01T03:20:22.088Z,6.70
2018-04-01T03:22:56.775Z,6.70
2018-04-01T03:25:30.163Z,6.70
2018-04-01T03:28:03.555Z,6.70
2018-04-01T03:30:37.583Z,6.70
2018-04-01T03:33:10.967Z,6.70
2018-04-01T03:35:45.207Z,6.60
2018-04-01T03:38:19.102Z,6.70
2018-04-01T03:40:52.410Z,6.70
2018-04-01T03:43:26.490Z,6.70
2018-04-01T03:45:59.805Z,6.70
2018-04-01T03:48:33.800Z,6.70
2018-04-01T03:51:07.194Z,6.70
2018-04-01T03:53:41.400Z,6.70
2018-04-01T03:56:14.970Z,6.70
2018-04-01T03:58:49.008Z,6.70
2018-04-01T04:01:22.304Z,6.60
2018-04-01T04:03:57.258Z,6.70
2018-04-01T04:06:31.875Z,6.70
2018-04-01T04:09:05.954Z,6.70
2018-04-01T04:11:39.975Z,6.70
2018-04-01T04:14:14.977Z,6.80
2018-04-01T04:16:48.302Z,6.70
2018-04-01T04:19:21.651Z,6.80
2018-04-01T04:21:57.349Z,6.80
2018-04-01T04:24:31.281Z,6.80
2018-04-01T04:27:05.491Z,6.70
2018-04-01T04:29:39.656Z,6.80
2018-04-01T04:32:12.875Z,6.80
2018-04-01T04:34:46.983Z,6.80
2018-04-01T04:37:21.094Z,6.80
2018-04-01T04:39:55.943Z,6.90
2018-04-01T04:42:30.035Z,6.80
2018-04-01T04:45:03.736Z,6.80
2018-04-01T04:47:37.139Z,6.80
2018-04-01T04:50:11.554Z,6.80
2018-04-01T04:52:46.555Z,6.80
2018-04-01T04:55:19.996Z,6.80
2018-04-01T04:57:54.500Z,6.80
2018-04-01T05:00:28.519Z,6.80
2018-04-01T05:03:01.914Z,6.80
2018-04-01T05:05:36.432Z,6.80
2018-04-01T05:08:10.546Z,6.80
2018-04-01T05:10:45.478Z,6.80
2018-04-01T05:13:19.481Z,6.70
2018-04-01T05:15:52.878Z,6.80
2018-04-01T05:18:27.094Z,6.70
2018-04-01T05:21:00.410Z,6.70
2018-04-01T05:23:34.489Z,6.70
2018-04-01T05:26:08.600Z,6.70
2018-04-01T05:28:42.329Z,6.70
2018-04-01T05:31:15.704Z,6.70
2018-04-01T05:33:48.907Z,6.70
2018-04-01T05:36:22.482Z,6.70
2018-04-01T05:38:56.609Z,6.70
2018-04-01T05:41:29.811Z,6.70
2018-04-01T05:44:03.296Z,6.70
2018-04-01T05:46:37.416Z,6.70
2018-04-01T05:49:10.696Z,6.70
2018-04-01T05:51:44.939Z,6.80
2018-04-01T05:54:18.723Z,6.70
2018-04-01T05:56:52.424Z,6.70
2018-04-01T05:59:26.532Z,6.70
2018-04-01T06:01:59.823Z,6.70
2018-04-01T06:04:33.419Z,6.80
2018-04-01T06:07:06.931Z,6.80
2018-04-01T06:09:41.028Z,6.80
2018-04-01T06:12:15.558Z,6.80
2018-04-01T06:14:49.665Z,6.80
2018-04-01T06:17:23.260Z,6.80
2018-04-01T06:19:57.475Z,6.60
2018-04-01T06:22:30.881Z,6.60
2018-04-01T06:25:05.089Z,6.30
2018-04-01T06:27:39.208Z,6.30
2018-04-01T06:30:13.311Z,6.30
2018-04-01T06:32:46.705Z,6.30
2018-04-01T06:35:19.911Z,6.30
2018-04-01T06:37:53.295Z,6.20
2018-04-01T06:40:27.496Z,6.20
2018-04-01T06:43:01.723Z,6.30
2018-04-01T06:45:36.336Z,6.30
2018-04-01T06:48:10.359Z,6.30
2018-04-01T06:50:44.053Z,6.30
2018-04-01T06:53:18.455Z,6.40
2018-04-01T06:55:53.732Z,6.40
2018-04-01T06:58:28.021Z,6.40
2018-04-01T07:01:02.395Z,6.70
2018-04-01T07:03:36.549Z,6.70
2018-04-01T07:06:09.867Z,6.90
2018-04-01T07:08:43.152Z,6.90
2018-04-01T07:11:16.768Z,6.90
2018-04-01T07:13:50.047Z,7.10
2018-04-01T07:16:23.244Z,7.10
2018-04-01T07:18:57.640Z,7.20
2018-04-01T07:34:22.214Z,7.40
2018-04-01T07:36:55.703Z,7.40
2018-04-01T07:39:28.807Z,7.20
2018-04-01T07:42:02.221Z,7.20
2018-04-01T07:44:35.483Z,7.30
2018-04-01T07:47:09.387Z,7.20
2018-04-01T07:49:43.405Z,7.20
2018-04-01T07:52:16.711Z,7.20
2018-04-01T07:54:50.033Z,7.10
2018-04-01T07:57:23.276Z,7.10
2018-04-01T07:59:57.187Z,6.80
2018-04-01T08:02:30.391Z,6.80
2018-04-01T08:05:03.880Z,6.40
2018-04-01T08:07:38.092Z,6.20
2018-04-01T08:10:11.413Z,6.20
2018-04-01T08:12:45.305Z,6.10
2018-04-01T08:15:18.697Z,6.10
2018-04-01T08:17:52.083Z,6.10
2018-04-01T08:20:26.290Z,6.40
2018-04-01T08:23:00.323Z,6.60
2018-04-01T08:25:34.621Z,6.50
2018-04-01T08:28:08.832Z,6.70
2018-04-01T08:30:42.118Z,6.70
2018-04-01T08:33:15.635Z,6.80
2018-04-01T08:35:49.239Z,6.90
2018-04-01T08:38:23.859Z,7.30
2018-04-01T08:40:57.047Z,7.40
2018-04-01T08:43:30.423Z,7.10
2018-04-01T08:46:04.748Z,7.20
2018-04-01T08:48:38.974Z,7.30
2018-04-01T08:51:12.610Z,7.30
2018-04-01T08:53:46.075Z,7.60
2018-04-01T08:56:19.349Z,7.50
2018-04-01T08:58:52.963Z,7.40
2018-04-01T09:01:26.140Z,7.60
2018-04-01T09:03:59.523Z,7.50
2018-04-01T09:06:32.826Z,7.50
2018-04-01T09:09:06.698Z,7.70
2018-04-01T09:11:39.925Z,7.70
2018-04-01T09:14:13.640Z,7.90
2018-04-01T09:16:47.532Z,8.00
2018-04-01T09:19:21.752Z,7.90
2018-04-01T09:21:55.264Z,7.80
2018-04-01T09:24:29.271Z,7.70
2018-04-01T09:27:02.850Z,7.60
2018-04-01T09:29:37.495Z,7.80
2018-04-01T09:32:10.983Z,7.80
2018-04-01T09:34:44.493Z,7.90
2018-04-01T09:37:18.487Z,7.80
2018-04-01T09:39:51.954Z,7.80
2018-04-01T09:42:25.295Z,7.90
2018-04-01T09:44:58.571Z,8.00
2018-04-01T09:47:32.678Z,7.80
2018-04-01T09:50:07.063Z,7.80
2018-04-01T09:52:40.107Z,7.80
2018-04-01T09:55:14.499Z,8.00
2018-04-01T09:57:48.521Z,7.90
2018-04-01T10:00:25.626Z,8.00
2018-04-01T10:02:59.293Z,8.00
2018-04-01T10:05:33.115Z,8.10
2018-04-01T10:08:08.339Z,8.10
2018-04-01T10:10:43.172Z,7.90
2018-04-01T10:13:18.091Z,8.20
2018-04-01T10:15:52.027Z,8.20
2018-04-01T10:18:26.724Z,7.90
2018-04-01T10:21:00.430Z,7.80
2018-04-01T10:23:35.281Z,7.60
2018-04-01T10:26:09.083Z,7.50
2018-04-01T10:28:42.978Z,7.90
2018-04-01T10:31:16.697Z,8.10
2018-04-01T10:33:51.107Z,8.20
2018-04-01T10:36:28.600Z,8.30
2018-04-01T10:39:04.344Z,8.30
2018-04-01T10:41:39.265Z,8.50
2018-04-01T10:44:14.608Z,8.30
2018-04-01T10:46:48.511Z,8.30
2018-04-01T10:49:22.524Z,8.60
2018-04-01T10:51:56.845Z,8.60
2018-04-01T10:54:29.941Z,9.00
2018-04-01T10:57:03.324Z,9.00
2018-04-01T10:59:37.549Z,8.90
2018-04-01T11:02:10.943Z,8.90
2018-04-01T11:04:45.661Z,8.60
2018-04-01T11:07:18.767Z,8.60
2018-04-01T11:09:52.760Z,8.70
2018-04-01T11:12:26.576Z,8.60
2018-04-01T11:15:00.671Z,8.80
2018-04-01T11:17:35.126Z,8.70
2018-04-01T11:20:09.227Z,8.70
2018-04-01T11:22:44.348Z,8.70
2018-04-01T11:25:18.643Z,9.00
2018-04-01T11:27:52.567Z,8.70
2018-04-01T11:30:26.375Z,8.70
2018-04-01T11:32:59.986Z,8.40
2018-04-01T11:35:36.135Z,4.30
2018-04-01T11:38:09.723Z,4.30
2018-04-01T11:40:45.687Z,4.40
2018-04-01T11:43:20.107Z,4.50
2018-04-01T11:45:56.285Z,4.90
2018-04-01T11:48:30.587Z,5.10
2018-04-01T11:51:06.122Z,5.20
2018-04-01T11:53:40.638Z,5.20
2018-04-01T11:56:16.498Z,5.50
2018-04-01T11:58:49.888Z,5.50
2018-04-01T12:01:26.283Z,6.00
2018-04-01T12:04:00.681Z,6.30
2018-04-01T12:06:36.211Z,6.40
2018-04-01T12:09:09.700Z,6.40
2018-04-01T12:11:44.047Z,6.30
2018-04-01T12:14:17.655Z,6.50
2018-04-01T12:16:52.351Z,6.80
2018-04-01T12:19:26.665Z,6.90
2018-04-01T12:22:00.887Z,7.10
2018-04-01T12:24:35.413Z,7.30
2018-04-01T12:27:09.428Z,7.50
2018-04-01T12:29:44.985Z,7.40
2018-04-01T12:32:18.672Z,7.40
2018-04-01T12:34:53.315Z,7.50
2018-04-01T12:37:28.019Z,9.00
2018-04-01T12:40:01.620Z,9.00
2018-04-01T12:42:36.634Z,8.00
2018-04-01T12:45:11.030Z,7.80
2018-04-01T12:47:46.223Z,7.80
2018-04-01T12:50:19.593Z,7.80
2018-04-01T13:05:56.535Z,8.00
2018-04-01T13:08:29.836Z,8.10
2018-04-01T13:11:03.777Z,8.00
2018-04-01T13:13:37.887Z,7.90
2018-04-01T13:16:11.155Z,7.90
2018-04-01T13:18:44.991Z,7.80
2018-04-01T13:21:18.862Z,7.80
2018-04-01T13:23:52.887Z,7.60
2018-04-01T13:26:27.107Z,7.60
2018-04-01T13:29:00.379Z,7.60
2018-04-01T13:31:33.378Z,7.60
2018-04-01T13:34:06.783Z,7.60
2018-04-01T13:36:40.885Z,7.70
2018-04-01T13:39:15.806Z,7.70
2018-04-01T13:41:49.215Z,7.60
2018-04-01T13:44:22.726Z,7.00
2018-04-01T13:46:56.309Z,6.50
2018-04-01T13:49:29.719Z,6.20
2018-04-01T13:52:04.002Z,5.90
2018-04-01T13:54:38.324Z,5.80
2018-04-01T13:57:12.341Z,6.00
2018-04-01T13:59:45.834Z,6.00
2018-04-01T14:02:19.952Z,6.60
2018-04-01T14:04:53.967Z,6.80
2018-04-01T14:07:28.175Z,6.90
2018-04-01T14:10:01.581Z,6.90
2018-04-01T14:12:36.627Z,7.00
2018-04-01T14:15:10.694Z,7.10
2018-04-01T14:17:45.348Z,7.30
2018-04-01T14:20:18.940Z,7.30
2018-04-01T14:22:52.325Z,7.40
2018-04-01T14:25:26.786Z,7.70
2018-04-01T14:28:00.016Z,7.70
2018-04-01T14:30:38.834Z,8.00
2018-04-01T14:33:13.182Z,8.10
2018-04-01T14:35:46.592Z,8.10
2018-04-01T14:38:19.839Z,8.20
2018-04-01T14:40:53.016Z,8.20
2018-04-01T14:43:26.539Z,8.30
2018-04-01T14:45:59.839Z,8.30
2018-04-01T14:48:35.113Z,8.40
2018-04-01T14:51:09.396Z,8.40
2018-04-01T14:53:42.936Z,8.40
2018-04-01T14:56:17.215Z,8.60
2018-04-01T14:58:50.732Z,8.50
2018-04-01T15:01:24.312Z,8.50
2018-04-01T15:03:57.835Z,8.50
2018-04-01T15:06:32.574Z,8.60
2018-04-01T15:09:06.654Z,8.70
2018-04-01T15:11:41.260Z,8.80
2018-04-01T15:14:15.235Z,8.90
2018-04-01T15:16:48.668Z,8.80
2018-04-01T15:19:23.366Z,8.70
2018-04-01T15:21:57.697Z,9.40
2018-04-01T15:24:31.613Z,9.40
2018-04-01T15:27:06.907Z,9.10
2018-04-01T15:29:40.038Z,8.90
2018-04-01T15:32:14.950Z,8.30
2018-04-01T15:34:48.747Z,8.30
2018-04-01T15:37:22.826Z,8.50
2018-04-01T15:39:56.200Z,8.40
2018-04-01T15:42:29.692Z,8.70
2018-04-01T15:45:03.609Z,8.70
2018-04-01T15:47:36.878Z,8.40
2018-04-01T15:50:10.684Z,8.20
2018-04-01T15:52:47.770Z,8.20
2018-04-01T15:55:22.614Z,8.00
2018-04-01T15:57:56.812Z,8.00
2018-04-01T16:00:31.048Z,7.90
2018-04-01T16:03:06.858Z,7.90
2018-04-01T16:05:40.988Z,7.80
2018-04-01T16:08:15.539Z,7.80
2018-04-01T16:10:49.751Z,7.80
2018-04-01T16:13:24.367Z,7.80
2018-04-01T16:15:59.612Z,7.70
2018-04-01T16:18:33.466Z,7.70
2018-04-01T16:21:08.354Z,7.50
2018-04-01T16:23:42.867Z,7.40
2018-04-01T16:26:16.985Z,7.50
2018-04-01T16:28:53.602Z,7.50
2018-04-01T16:31:29.882Z,7.60
2018-04-01T16:34:05.523Z,7.80
2018-04-01T16:36:38.819Z,7.70
2018-04-01T16:39:12.826Z,7.80
2018-04-01T16:54:37.020Z,7.80
2018-04-01T16:57:11.005Z,7.80
2018-04-01T16:59:45.200Z,7.80
2018-04-01T17:02:18.722Z,7.90
2018-04-01T17:04:54.083Z,7.90
2018-04-01T17:07:28.267Z,7.80
2018-04-01T17:10:02.265Z,7.80
2018-04-01T17:12:35.789Z,7.80
2018-04-01T17:15:09.213Z,7.80
2018-04-01T17:17:43.178Z,7.90
2018-04-01T17:20:17.393Z,7.80
2018-04-01T17:22:51.614Z,7.80
2018-04-01T17:25:26.699Z,7.80
2018-04-01T17:28:00.030Z,7.80
2018-04-01T17:30:33.762Z,7.80
2018-04-01T17:33:08.079Z,7.80
2018-04-01T17:35:42.978Z,7.70
2018-04-01T17:38:16.489Z,7.70
2018-04-01T17:40:50.655Z,7.60
2018-04-01T17:43:24.844Z,7.70
2018-04-01T17:45:58.503Z,7.60
2018-04-01T17:48:33.763Z,7.60
2018-04-01T17:51:07.676Z,7.60
2018-04-01T17:53:41.382Z,7.60
2018-04-01T17:56:15.968Z,7.60
2018-04-01T17:58:50.393Z,7.60
2018-04-01T18:01:24.679Z,7.50
2018-04-01T18:03:58.733Z,7.50
2018-04-01T18:06:33.666Z,7.40
2018-04-01T18:09:07.368Z,7.40
2018-04-01T18:11:40.868Z,7.30
2018-04-01T18:14:15.360Z,7.10
2018-04-01T18:16:48.690Z,7.10
2018-04-01T18:19:23.015Z,6.80
2018-04-01T18:21:56.706Z,6.80
2018-04-01T18:24:29.994Z,6.70
2018-04-01T18:27:04.516Z,6.30
2018-04-01T18:29:37.811Z,6.30
2018-04-01T18:32:14.353Z,5.60
2018-04-01T18:34:48.280Z,5.40
2018-04-01T18:37:21.593Z,5.40
2018-04-01T18:39:55.068Z,5.40
2018-04-01T18:42:28.471Z,5.50
2018-04-01T18:45:01.849Z,5.50
2018-04-01T18:47:35.262Z,5.50
2018-04-01T18:50:08.757Z,5.50
2018-04-01T18:52:42.043Z,5.40
2018-04-01T18:55:15.544Z,5.50
2018-04-01T18:57:49.156Z,5.50
2018-04-01T19:00:23.854Z,5.50
2018-04-01T19:02:57.162Z,5.50
2018-04-01T19:05:30.566Z,5.50
2018-04-01T19:08:04.893Z,5.70
2018-04-01T19:10:39.000Z,5.70
2018-04-01T19:13:12.584Z,5.70
2018-04-01T19:15:46.197Z,5.80
2018-04-01T19:18:20.716Z,5.90
2018-04-01T19:20:55.140Z,5.90
2018-04-01T19:23:29.833Z,5.90
2018-04-01T19:26:03.848Z,5.90
2018-04-01T19:28:38.910Z,5.90
2018-04-01T19:31:13.415Z,5.90
2018-04-01T19:33:47.321Z,5.90
2018-04-01T19:36:20.939Z,5.90
2018-04-01T19:38:55.209Z,6.00
2018-04-01T19:41:29.402Z,6.00
2018-04-01T19:44:04.580Z,5.90
2018-04-01T19:46:38.523Z,5.90
2018-04-01T19:49:14.038Z,5.90
2018-04-01T19:51:47.976Z,5.90
2018-04-01T19:54:22.794Z,5.80
2018-04-01T19:56:57.220Z,5.90
2018-04-01T19:59:31.072Z,5.90
2018-04-01T20:02:04.803Z,5.90
2018-04-01T20:04:39.599Z,5.90
2018-04-01T20:07:14.676Z,5.80
2018-04-01T20:09:48.392Z,5.80
2018-04-01T20:12:22.293Z,5.80
2018-04-01T20:14:56.379Z,5.80
2018-04-01T20:17:31.006Z,5.70
2018-04-01T20:20:05.323Z,5.60
2018-04-01T20:22:40.275Z,5.50
2018-04-01T20:25:14.272Z,5.60
2018-04-01T20:27:48.306Z,5.60
2018-04-01T20:30:22.194Z,5.60
2018-04-01T20:32:56.900Z,5.60
2018-04-01T20:35:31.038Z,5.60
2018-04-01T20:38:06.630Z,5.60
2018-04-01T20:53:43.130Z,5.40
2018-04-01T20:56:17.973Z,5.30
2018-04-01T20:58:52.158Z,5.30
2018-04-01T21:01:26.828Z,5.20
2018-04-01T21:04:01.907Z,5.20
2018-04-01T21:06:36.148Z,5.20
2018-04-01T21:09:10.658Z,5.20
2018-04-01T21:11:44.818Z,5.20
2018-04-01T21:14:18.772Z,5.30
2018-04-01T21:16:52.486Z,5.30
2018-04-01T21:19:27.008Z,5.30
2018-04-01T21:22:02.037Z,5.20
2018-04-01T21:24:36.569Z,5.20
2018-04-01T21:27:10.363Z,5.20
2018-04-01T21:29:45.012Z,5.30
2018-04-01T21:32:18.891Z,5.30
2018-04-01T21:34:53.734Z,5.30
2018-04-01T21:37:28.136Z,5.30
2018-04-01T21:40:02.176Z,5.30
2018-04-01T21:42:36.559Z,5.30
2018-04-01T21:45:10.269Z,5.30
2018-04-01T21:47:45.408Z,5.40
2018-04-01T21:50:19.955Z,5.40
2018-04-01T21:52:55.278Z,5.40
2018-04-01T21:55:29.100Z,5.40
2018-04-01T21:58:03.390Z,5.40
2018-04-01T22:00:37.903Z,5.40
2018-04-01T22:03:13.606Z,5.40
2018-04-01T22:05:47.876Z,5.50
2018-04-01T22:08:22.508Z,5.50
2018-04-01T22:10:57.126Z,5.60
2018-04-01T22:13:31.195Z,5.50
2018-04-01T22:16:06.083Z,5.60
2018-04-01T22:18:39.962Z,5.60
2018-04-01T22:21:14.612Z,5.70
2018-04-01T22:23:49.112Z,5.70
2018-04-01T22:26:22.882Z,5.70
2018-04-01T22:28:57.734Z,5.70
2018-04-01T22:31:31.556Z,5.70
2018-04-01T22:34:05.419Z,5.70
2018-04-01T22:36:41.331Z,5.80
2018-04-01T22:39:17.381Z,5.80
2018-04-01T22:41:51.947Z,5.80
2018-04-01T22:44:33.852Z,5.80
2018-04-01T22:47:08.408Z,5.80
2018-04-01T22:49:43.403Z,5.80
2018-04-01T22:52:17.367Z,5.80
2018-04-01T22:54:51.470Z,5.80
2018-04-01T22:57:26.196Z,5.70
2018-04-01T23:00:00.831Z,5.70
2018-04-01T23:02:35.846Z,5.70
2018-04-01T23:05:09.647Z,5.60
2018-04-01T23:07:44.656Z,5.50
2018-04-01T23:10:19.233Z,5.40
2018-04-01T23:12:54.148Z,5.30
2018-04-01T23:15:28.564Z,5.30
2018-04-01T23:18:03.296Z,5.20
2018-04-01T23:20:37.360Z,5.20
2018-04-01T23:23:11.195Z,5.10
2018-04-01T23:25:46.430Z,5.00
2018-04-01T23:28:20.168Z,4.90
2018-04-01T23:30:54.625Z,4.90
2018-04-01T23:33:29.181Z,4.80
2018-04-01T23:36:04.437Z,4.70
2018-04-01T23:38:38.426Z,4.70
2018-04-01T23:41:12.342Z,4.70
2018-04-01T23:43:46.956Z,4.60
2018-04-01T23:46:20.756Z,4.50
2018-04-01T23:48:55.788Z,4.60
2018-04-01T23:51:30.415Z,4.50
2018-04-01T23:54:05.131Z,4.40
2018-04-01T23:56:38.977Z,4.30
2018-04-01T23:59:13.969Z,4.50
